Time;durP1;ratioP1;P1;durP2;ratioP2;P2;SDS_P1;SDS_P2;PMS_P1;PMS_P2;Temp;Humidity;BMP_temperature;BMP_pressure;BME280_temperature;BME280_humidity;BME280_pressure;Samples;Min_cycle;Max_cycle;Signal;HPM_P1;HPM_P2
2024/01/10 00:00:39;;;;;;;42.93;17.48;;;;;;;-7.47;68.08;102054.17;1477581;88;21353;-75
2024/01/10 00:03:07;;;;;;;41.88;17.27;;;;;;;-7.45;67.82;102052.88;1471833;88;21605;-76
2024/01/10 00:05:34;;;;;;;34.13;14.53;;;;;;;-7.43;68.15;102058.47;1466981;88;21330;-78
2024/01/10 00:08:01;;;;;;;37.23;16.62;;;;;;;-7.44;68.42;102061.90;1457089;88;22387;-77
2024/01/10 00:10:28;;;;;;;45.05;17.82;;;;;;;-7.46;68.28;102060.17;1476133;88;21500;-77
2024/01/10 00:12:55;;;;;;;41.65;17.42;;;;;;;-7.49;69.29;102061.02;1457373;88;21397;-77
2024/01/10 00:15:22;;;;;;;50.75;20.20;;;;;;;-7.46;69.08;102061.45;1469768;88;21486;-77
2024/01/10 00:17:50;;;;;;;41.95;17.90;;;;;;;-7.45;68.54;102065.73;1482024;88;21301;-78
2024/01/10 00:20:17;;;;;;;43.73;18.80;;;;;;;-7.49;68.91;102069.58;1477643;88;21345;-77
2024/01/10 00:22:44;;;;;;;33.98;14.73;;;;;;;-7.49;68.64;102067.44;1468645;88;21508;-78
2024/01/10 00:25:11;;;;;;;44.55;18.10;;;;;;;-7.53;69.13;102073.01;1470551;88;21345;-75
2024/01/10 00:27:38;;;;;;;38.15;17.50;;;;;;;-7.57;68.80;102073.83;1467628;88;21496;-76
2024/01/10 00:30:08;;;;;;;47.80;18.15;;;;;;;-7.60;68.67;102078.10;1469024;88;21375;-76
2024/01/10 00:32:35;;;;;;;38.85;17.10;;;;;;;-7.61;68.35;102076.39;1447675;88;21493;-75
2024/01/10 00:35:03;;;;;;;43.73;17.15;;;;;;;-7.64;68.56;102082.38;1471619;88;21618;-75
2024/01/10 00:37:30;;;;;;;37.73;15.78;;;;;;;-7.65;68.78;102084.92;1473647;88;22292;-75
2024/01/10 00:39:58;;;;;;;39.30;15.30;;;;;;;-7.67;68.86;102083.64;1469892;88;21368;-75
2024/01/10 00:42:25;;;;;;;39.78;18.17;;;;;;;-7.72;69.77;102082.33;1475102;88;22351;-75
2024/01/10 00:44:52;;;;;;;37.23;15.70;;;;;;;-7.74;68.81;102085.34;1471630;88;21434;-75
2024/01/10 00:47:20;;;;;;;35.92;16.15;;;;;;;-7.77;68.77;102087.89;1460401;88;21500;-76
2024/01/10 00:49:47;;;;;;;37.08;15.00;;;;;;;-7.80;68.90;102085.27;1478231;88;21390;-75
2024/01/10 00:52:14;;;;;;;37.35;14.40;;;;;;;-7.83;68.78;102083.97;1471603;88;21303;-75
2024/01/10 00:54:43;;;;;;;41.37;16.02;;;;;;;-7.86;69.19;102087.80;1469246;88;21427;-75
2024/01/10 00:57:11;;;;;;;40.12;14.28;;;;;;;-7.88;69.37;102083.50;1473259;88;21994;-75
2024/01/10 00:59:38;;;;;;;33.50;16.85;;;;;;;-7.92;69.57;102085.20;1445606;88;21612;-75
2024/01/10 01:02:05;;;;;;;42.45;16.60;;;;;;;-7.92;69.22;102088.20;1482075;88;21419;-75
2024/01/10 01:04:32;;;;;;;40.15;16.07;;;;;;;-7.91;70.09;102085.66;1459853;88;22300;-75
2024/01/10 01:06:59;;;;;;;32.70;13.20;;;;;;;-7.92;70.08;102081.34;1467144;88;21515;-75
2024/01/10 01:09:26;;;;;;;38.85;15.10;;;;;;;-7.95;69.88;102083.90;1471796;88;22167;-75
2024/01/10 01:11:53;;;;;;;41.85;16.17;;;;;;;-7.97;70.55;102087.77;1473692;88;21475;-75
2024/01/10 01:14:20;;;;;;;41.90;15.95;;;;;;;-7.98;70.19;102085.16;1471968;88;22204;-75
2024/01/10 01:16:47;;;;;;;39.15;16.00;;;;;;;-7.98;70.17;102087.30;1480600;88;21559;-74
2024/01/10 01:19:14;;;;;;;42.93;17.00;;;;;;;-8.02;70.65;102088.14;1456563;88;21414;-76
2024/01/10 01:21:43;;;;;;;41.77;16.75;;;;;;;-8.07;72.20;102087.67;1471313;88;21367;-76
2024/01/10 01:24:11;;;;;;;38.42;16.85;;;;;;;-8.09;71.64;102091.94;1475463;88;21973;-75
2024/01/10 01:26:38;;;;;;;42.17;17.17;;;;;;;-8.14;73.25;102090.64;1468003;88;21339;-74
2024/01/10 01:29:05;;;;;;;41.85;17.55;;;;;;;-8.18;73.41;102084.59;1470017;88;21508;-76
2024/01/10 01:31:33;;;;;;;34.83;14.93;;;;;;;-8.21;73.55;102083.28;1471166;88;21367;-76
2024/01/10 01:34:00;;;;;;;42.70;18.60;;;;;;;-8.23;74.45;102083.72;1477111;88;22217;-76
2024/01/10 01:36:27;;;;;;;32.55;15.23;;;;;;;-8.24;74.62;102081.98;1474411;88;21493;-76
2024/01/10 01:38:55;;;;;;;35.52;16.32;;;;;;;-8.23;73.77;102078.58;1471456;88;21353;-74
2024/01/10 01:41:22;;;;;;;33.65;15.72;;;;;;;-8.20;73.29;102079.89;1466263;88;21412;-74
2024/01/10 01:43:49;;;;;;;36.83;16.40;;;;;;;-8.22;74.04;102077.72;1481484;88;22476;-75
2024/01/10 01:46:17;;;;;;;39.05;17.25;;;;;;;-8.26;73.76;102077.24;1479234;88;21405;-75
2024/01/10 01:48:45;;;;;;;39.73;15.95;;;;;;;-8.26;73.25;102073.39;1480989;88;21515;-75
2024/01/10 01:51:14;;;;;;;37.20;16.57;;;;;;;-8.27;72.60;102078.53;1471886;88;22374;-75
2024/01/10 01:53:44;;;;;;;41.35;16.32;;;;;;;-8.26;72.43;102080.24;1464031;88;21345;-75
2024/01/10 01:56:14;;;;;;;41.75;15.93;;;;;;;-8.30;73.55;102084.50;1471798;88;21581;-74
2024/01/10 01:58:44;;;;;;;40.23;16.37;;;;;;;-8.32;73.57;102070.78;1466908;88;21367;-75
2024/01/10 02:01:12;;;;;;;35.70;15.60;;;;;;;-8.28;73.13;102076.83;1471013;88;21543;-74
2024/01/10 02:03:39;;;;;;;31.52;15.43;;;;;;;-8.33;73.08;102072.92;1471517;88;21367;-75
2024/01/10 02:06:06;;;;;;;40.23;17.82;;;;;;;-8.41;73.77;102070.31;1471729;88;21434;-75
2024/01/10 02:08:35;;;;;;;40.60;17.00;;;;;;;-8.43;74.01;102066.01;1474195;88;21449;-75
2024/01/10 02:11:03;;;;;;;40.43;16.40;;;;;;;-8.46;74.11;102064.70;1477185;88;21621;-75
2024/01/10 02:13:32;;;;;;;33.13;16.02;;;;;;;-8.47;75.73;102057.86;1475984;88;21375;-75
2024/01/10 02:16:00;;;;;;;35.48;15.25;;;;;;;-8.49;76.57;102062.11;1472589;88;21555;-77
2024/01/10 02:18:27;;;;;;;36.55;15.30;;;;;;;-8.53;77.35;102054.81;1474168;88;22284;-76
2024/01/10 02:20:55;;;;;;;34.38;15.98;;;;;;;-8.56;77.62;102057.36;1473319;88;21466;-77
2024/01/10 02:23:22;;;;;;;33.85;15.85;;;;;;;-8.57;76.35;102057.33;1470870;88;21375;-77
2024/01/10 02:25:49;;;;;;;32.28;13.72;;;;;;;-8.58;76.90;102051.77;1469628;88;21502;-77
2024/01/10 02:28:17;;;;;;;34.10;14.45;;;;;;;-8.60;77.48;102053.45;1478237;88;21367;-77
2024/01/10 02:30:44;;;;;;;40.83;17.27;;;;;;;-8.57;77.10;102056.05;1477806;88;21345;-76
2024/01/10 02:33:11;;;;;;;35.52;15.32;;;;;;;-8.57;77.27;102057.33;1475247;88;21503;-76
2024/01/10 02:35:38;;;;;;;37.23;17.57;;;;;;;-8.59;77.56;102052.62;1468971;88;22368;-75
2024/01/10 02:38:06;;;;;;;35.17;15.63;;;;;;;-8.58;77.25;102050.48;1479161;88;21397;-75
2024/01/10 02:40:34;;;;;;;32.55;14.75;;;;;;;-8.60;76.93;102050.89;1471549;88;21419;-75
2024/01/10 02:43:02;;;;;;;39.75;18.35;;;;;;;-8.58;76.68;102055.62;1479101;88;21368;-77
2024/01/10 02:45:29;;;;;;;40.12;16.20;;;;;;;-8.57;76.90;102047.95;1482284;88;21531;-76
2024/01/10 02:47:57;;;;;;;34.30;15.05;;;;;;;-8.58;76.48;102051.77;1473986;88;22359;-76
2024/01/10 02:50:24;;;;;;;40.30;16.05;;;;;;;-8.59;76.36;102050.06;1473432;88;21398;-76
2024/01/10 02:52:51;;;;;;;32.48;14.75;;;;;;;-8.61;76.84;102049.17;1457442;88;21390;-76
2024/01/10 02:55:18;;;;;;;39.05;16.73;;;;;;;-8.64;77.63;102049.58;1470772;88;22346;-76
2024/01/10 02:57:45;;;;;;;37.53;15.88;;;;;;;-8.65;76.61;102040.59;1474551;88;21375;-76
2024/01/10 03:00:13;;;;;;;40.78;16.97;;;;;;;-8.65;75.98;102045.73;1475983;88;21442;-76
2024/01/10 03:02:41;;;;;;;47.23;18.67;;;;;;;-8.65;76.46;102041.45;1478027;88;21368;-76
2024/01/10 03:05:08;;;;;;;40.55;16.52;;;;;;;-8.63;76.28;102041.45;1476605;88;21528;-76
2024/01/10 03:07:35;;;;;;;43.68;17.00;;;;;;;-8.58;76.58;102036.36;1475209;88;21427;-77
2024/01/10 03:10:03;;;;;;;43.35;16.32;;;;;;;-8.55;76.50;102043.66;1480165;88;21391;-76
2024/01/10 03:12:30;;;;;;;40.98;18.52;;;;;;;-8.56;76.33;102039.81;1469818;88;21309;-77
2024/01/10 03:14:58;;;;;;;40.98;17.27;;;;;;;-8.61;77.06;102036.34;1472865;88;22427;-75
2024/01/10 03:17:25;;;;;;;48.33;21.23;;;;;;;-8.66;78.15;102028.59;1467542;88;21345;-77
2024/01/10 03:19:53;;;;;;;36.00;16.02;;;;;;;-8.71;77.58;102028.56;1469167;88;21442;-76
2024/01/10 03:22:20;;;;;;;38.65;16.32;;;;;;;-8.71;78.49;102025.14;1475158;88;21485;-76
2024/01/10 03:24:47;;;;;;;42.67;17.05;;;;;;;-8.73;78.12;102025.12;1476334;88;21359;-76
2024/01/10 03:27:15;;;;;;;37.80;17.85;;;;;;;-8.74;79.19;102022.55;1476060;88;21360;-76
2024/01/10 03:29:42;;;;;;;37.80;17.73;;;;;;;-8.75;78.43;102019.10;1473531;88;21567;-77
2024/01/10 03:32:09;;;;;;;39.53;17.82;;;;;;;-8.76;78.41;102010.98;1475932;88;21420;-75
2024/01/10 03:34:36;;;;;;;38.38;18.00;;;;;;;-8.81;80.47;102008.78;1462800;88;21485;-75
2024/01/10 03:37:04;;;;;;;37.70;14.98;;;;;;;-8.85;80.17;102010.91;1475319;88;21412;-75
2024/01/10 03:39:31;;;;;;;42.67;17.45;;;;;;;-8.87;83.52;102012.58;1475389;88;22395;-75
2024/01/10 03:41:59;;;;;;;40.58;16.60;;;;;;;-8.90;82.17;102008.70;1467991;88;21353;-74
2024/01/10 03:44:27;;;;;;;39.23;18.25;;;;;;;-8.89;80.83;102012.98;1471833;88;21367;-77
2024/01/10 03:46:54;;;;;;;37.05;18.37;;;;;;;-8.93;83.84;102012.53;1462070;88;21582;-77
2024/01/10 03:49:22;;;;;;;41.68;17.37;;;;;;;-8.98;84.31;102012.91;1471290;88;22358;-77
2024/01/10 03:51:49;;;;;;;38.38;16.67;;;;;;;-9.03;85.04;102009.42;1477590;88;21523;-77
2024/01/10 03:54:16;;;;;;;40.30;17.95;;;;;;;-9.03;83.97;102009.03;1473167;88;21442;-77
2024/01/10 03:56:43;;;;;;;32.50;15.93;;;;;;;-9.02;83.21;102012.45;1470741;88;21331;-76
2024/01/10 03:59:10;;;;;;;35.92;15.78;;;;;;;-9.06;86.03;102018.38;1479270;88;21497;-77
2024/01/10 04:01:39;;;;;;;42.50;15.85;;;;;;;-9.09;85.63;102012.39;1469243;88;22422;-77
2024/01/10 04:04:08;;;;;;;35.15;14.78;;;;;;;-9.06;83.90;102014.14;1476284;88;22298;-77
2024/01/10 04:06:35;;;;;;;32.05;15.98;;;;;;;-9.04;83.99;102012.84;1470981;88;22402;-76
2024/01/10 04:09:02;;;;;;;34.20;16.15;;;;;;;-9.02;83.57;102012.02;1474027;88;21384;-76
2024/01/10 04:11:29;;;;;;;37.67;15.20;;;;;;;-9.00;82.91;102013.34;1475867;88;22900;-77
2024/01/10 04:13:56;;;;;;;30.48;14.60;;;;;;;-8.97;82.84;102013.36;1474578;87;21828;-76
2024/01/10 04:16:24;;;;;;;32.83;15.28;;;;;;;-8.97;82.78;102019.77;1474698;88;22277;-76
2024/01/10 04:18:51;;;;;;;41.05;16.87;;;;;;;-8.94;82.21;102019.80;1469572;88;21359;-75
2024/01/10 04:21:18;;;;;;;37.75;16.97;;;;;;;-8.94;81.46;102015.53;1473680;88;21377;-76
2024/01/10 04:23:45;;;;;;;40.45;16.23;;;;;;;-8.92;81.49;102019.38;1472360;88;21521;-76
2024/01/10 04:26:15;;;;;;;35.98;15.75;;;;;;;-8.92;80.51;102024.50;1478453;88;21382;-76
2024/01/10 04:28:42;;;;;;;32.60;15.30;;;;;;;-8.94;80.13;102024.94;1475429;87;21508;-76
2024/01/10 04:31:09;;;;;;;37.33;15.83;;;;;;;-8.96;79.71;102024.05;1473396;88;21522;-76
2024/01/10 04:33:36;;;;;;;40.80;16.00;;;;;;;-8.98;79.23;102028.30;1467711;88;21383;-76
2024/01/10 04:36:04;;;;;;;34.40;15.65;;;;;;;-8.99;78.80;102037.70;1461700;88;21449;-76
2024/01/10 04:38:31;;;;;;;36.60;17.67;;;;;;;-9.02;78.34;102026.13;1474185;88;22403;-76
2024/01/10 04:40:59;;;;;;;40.25;18.85;;;;;;;-9.04;78.92;102035.94;1465820;88;21412;-76
2024/01/10 04:43:26;;;;;;;47.27;17.67;;;;;;;-9.07;80.37;102042.32;1478921;88;21390;-75
2024/01/10 04:45:53;;;;;;;33.28;14.75;;;;;;;-9.14;81.93;102042.26;1474350;88;21375;-76
2024/01/10 04:48:20;;;;;;;48.55;19.87;;;;;;;-9.21;82.61;102046.87;1472135;88;21449;-75
2024/01/10 04:50:47;;;;;;;43.10;18.55;;;;;;;-9.27;84.20;102048.09;1471779;88;22306;-76
2024/01/10 04:53:14;;;;;;;42.33;19.42;;;;;;;-9.26;83.56;102049.83;1473985;88;21397;-75
2024/01/10 04:55:41;;;;;;;49.13;17.60;;;;;;;-9.23;82.79;102052.85;1468952;88;22335;-75
2024/01/10 04:58:08;;;;;;;43.98;17.92;;;;;;;-9.23;82.24;102051.14;1475959;88;21471;-75
2024/01/10 05:00:36;;;;;;;35.08;15.90;;;;;;;-9.18;81.94;102043.48;1460845;88;21512;-75
2024/01/10 05:03:03;;;;;;;61.80;19.98;;;;;;;-9.14;81.78;102048.67;1476846;88;21405;-75
2024/01/10 05:05:30;;;;;;;55.08;20.48;;;;;;;-9.11;81.25;102048.70;1476017;88;22351;-75
2024/01/10 05:07:58;;;;;;;52.03;20.52;;;;;;;-9.13;81.09;102052.95;1473298;88;21510;-75
2024/01/10 05:10:25;;;;;;;48.10;20.90;;;;;;;-9.12;82.06;102052.52;1474082;88;21621;-75
2024/01/10 05:12:52;;;;;;;57.93;23.92;;;;;;;-9.14;81.83;102053.80;1467985;88;21375;-74
2024/01/10 05:15:19;;;;;;;55.92;22.55;;;;;;;-9.17;83.64;102061.89;1478705;88;21375;-74
2024/01/10 05:17:48;;;;;;;64.65;25.25;;;;;;;-9.22;83.73;102062.26;1472790;87;21419;-74
2024/01/10 05:20:15;;;;;;;48.30;22.37;;;;;;;-9.27;86.25;102066.47;1469906;88;21301;-76
2024/01/10 05:22:42;;;;;;;50.63;20.20;;;;;;;-9.34;86.97;102065.55;1479394;88;21560;-75
2024/01/10 05:25:10;;;;;;;43.55;18.82;;;;;;;-9.39;86.50;102068.04;1482483;88;21456;-78
2024/01/10 05:27:37;;;;;;;47.15;19.00;;;;;;;-9.39;86.47;102065.90;1458850;88;21353;-76
2024/01/10 05:30:05;;;;;;;62.00;23.65;;;;;;;-9.41;86.42;102068.86;1470897;88;21375;-75
2024/01/10 05:32:33;;;;;;;48.25;20.43;;;;;;;-9.45;86.14;102073.52;1478877;88;21412;-78
2024/01/10 05:35:00;;;;;;;95.97;25.15;;;;;;;-9.54;85.91;102078.97;1469827;88;21383;-77
2024/01/10 05:37:27;;;;;;;57.25;23.75;;;;;;;-9.55;85.08;102079.82;1475420;87;21457;-77
2024/01/10 05:39:54;;;;;;;80.45;27.93;;;;;;;-9.52;87.77;102078.11;1473618;88;21523;-79
2024/01/10 05:42:21;;;;;;;56.60;23.18;;;;;;;-9.53;87.65;102070.85;1472578;88;21524;-78
2024/01/10 05:44:48;;;;;;;71.70;26.93;;;;;;;-9.49;86.13;102078.16;1479139;88;21404;-79
2024/01/10 05:47:15;;;;;;;51.65;22.20;;;;;;;-9.46;85.03;102078.22;1476148;88;21515;-78
2024/01/10 05:49:43;;;;;;;52.00;22.22;;;;;;;-9.43;85.52;102062.88;1468789;88;22418;-78
2024/01/10 05:52:10;;;;;;;59.45;21.70;;;;;;;-9.41;84.71;102073.98;1473835;88;21560;-78
2024/01/10 05:54:37;;;;;;;85.60;26.45;;;;;;;-9.38;83.77;102075.30;1479842;88;21330;-78
2024/01/10 05:57:04;;;;;;;63.92;26.87;;;;;;;-9.37;83.46;102076.62;1473688;88;21478;-78
2024/01/10 05:59:31;;;;;;;79.70;27.85;;;;;;;-9.37;83.05;102071.92;1475418;88;22481;-78
2024/01/10 06:01:59;;;;;;;74.72;27.37;;;;;;;-9.38;83.86;102063.77;1472916;87;21323;-78
2024/01/10 06:04:27;;;;;;;87.92;32.50;;;;;;;-9.43;85.79;102073.13;1475480;88;22374;-79
2024/01/10 06:06:55;;;;;;;67.82;28.35;;;;;;;-9.48;88.66;102083.73;1472618;87;21442;-78
2024/01/10 06:09:22;;;;;;;77.42;30.52;;;;;;;-9.55;91.15;102084.95;1478410;88;21819;-78
2024/01/10 06:11:50;;;;;;;86.70;35.13;;;;;;;-9.60;92.17;102089.14;1468116;88;21545;-78
2024/01/10 06:14:17;;;;;;;70.03;29.50;;;;;;;-9.63;92.72;102094.23;1470582;88;21428;-78
2024/01/10 06:16:45;;;;;;;63.68;26.77;;;;;;;-9.61;92.40;102095.13;1478032;88;22401;-78
2024/01/10 06:19:24;;;;;;;57.58;24.77;;;;;;;-9.61;92.04;102093.84;1475394;88;21374;-78
2024/01/10 06:27:43;;;;;;;63.13;25.08;;;;;;;-9.62;98.31;102087.40;1453632;87;21844;-79
2024/01/10 06:30:11;;;;;;;55.05;24.72;;;;;;;-9.60;100.00;102092.98;1470401;88;22381;-79
2024/01/10 06:32:38;;;;;;;57.05;24.35;;;;;;;-9.59;100.00;102088.72;1475229;88;21324;-79
2024/01/10 06:35:05;;;;;;;64.32;23.67;;;;;;;-9.58;98.03;102092.60;1453321;88;21303;-79
2024/01/10 06:37:32;;;;;;;56.83;24.82;;;;;;;-9.59;98.52;102103.67;1475609;87;21502;-80
2024/01/10 06:40:00;;;;;;;53.08;20.95;;;;;;;-9.58;96.36;102107.98;1458583;88;21384;-79
2024/01/10 06:42:27;;;;;;;58.52;24.43;;;;;;;-9.58;97.07;102106.70;1454119;88;21295;-79
2024/01/10 06:44:54;;;;;;;56.65;22.07;;;;;;;-9.59;97.65;102108.80;1471091;87;22354;-79
2024/01/10 06:47:21;;;;;;;55.65;20.77;;;;;;;-9.57;96.50;102113.53;1474419;87;21266;-79
2024/01/10 06:49:49;;;;;;;53.28;19.37;;;;;;;-9.55;98.52;102108.02;1473737;88;21457;-79
2024/01/10 06:52:16;;;;;;;48.15;22.45;;;;;;;-9.52;99.74;102107.20;1469661;87;22160;-79
2024/01/10 06:54:43;;;;;;;70.80;22.20;;;;;;;-9.44;99.16;102103.00;1473085;87;21428;-79
2024/01/10 06:57:11;;;;;;;66.53;25.35;;;;;;;-9.36;98.16;102103.11;1472461;87;21501;-78
2024/01/10 06:59:38;;;;;;;54.67;24.02;;;;;;;-9.31;97.25;102104.05;1475779;87;21354;-79
2024/01/10 07:02:06;;;;;;;54.05;22.60;;;;;;;-9.25;97.43;102095.56;1473937;87;21454;-78
2024/01/10 07:04:33;;;;;;;53.25;21.55;;;;;;;-9.20;97.52;102094.78;1473443;88;21310;-78
2024/01/10 07:07:00;;;;;;;59.13;23.40;;;;;;;-9.13;97.28;102099.12;1474519;88;21465;-78
2024/01/10 07:09:27;;;;;;;57.23;25.62;;;;;;;-9.07;97.44;102090.63;1476080;87;21287;-78
2024/01/10 07:11:54;;;;;;;63.40;25.20;;;;;;;-9.00;97.50;102090.30;1465340;87;22345;-79
2024/01/10 07:14:22;;;;;;;59.42;23.07;;;;;;;-8.92;95.72;102094.67;1476740;88;21266;-78
2024/01/10 07:16:49;;;;;;;73.33;26.00;;;;;;;-8.84;95.61;102087.46;1476052;88;21317;-79
2024/01/10 07:19:16;;;;;;;62.43;23.92;;;;;;;-8.73;95.77;102091.86;1460312;88;21473;-79
2024/01/10 07:21:43;;;;;;;66.65;27.87;;;;;;;-8.62;95.76;102089.83;1472073;88;22256;-79
2024/01/10 07:24:11;;;;;;;72.25;32.53;;;;;;;-8.51;95.81;102094.21;1468221;88;21282;-79
2024/01/10 07:26:38;;;;;;;71.60;31.42;;;;;;;-8.39;95.16;102096.02;1462429;88;21258;-78
2024/01/10 07:29:08;;;;;;;87.57;36.75;;;;;;;-8.27;94.39;102099.08;1470354;87;21384;-79
2024/01/10 07:31:35;;;;;;;108.03;37.83;;;;;;;-8.17;93.62;102104.71;1480499;87;21503;-79
2024/01/10 07:34:04;;;;;;;70.87;32.65;;;;;;;-8.02;92.78;102102.71;1478853;87;22249;-79
2024/01/10 07:36:37;;;;;;;67.85;30.57;;;;;;;-7.89;91.88;102105.78;1476472;87;22315;-79
2024/01/10 07:39:02;;;;;;;73.67;33.05;;;;;;;-7.80;90.76;102107.13;1473746;88;21538;-79
2024/01/10 07:41:29;;;;;;;85.20;35.55;;;;;;;-7.69;90.22;102104.63;1477968;88;21476;-78
2024/01/10 07:43:57;;;;;;;100.80;41.50;;;;;;;-7.57;90.03;102103.83;1473231;88;21355;-79
2024/01/10 07:46:24;;;;;;;148.85;58.45;;;;;;;-7.46;89.63;102107.33;1477190;87;21361;-79
2024/01/10 07:48:51;;;;;;;137.22;59.77;;;;;;;-7.35;89.06;102099.66;1473870;88;21377;-78
2024/01/10 07:51:19;;;;;;;121.37;52.88;;;;;;;-7.23;88.41;102098.42;1468683;88;22286;-79
2024/01/10 07:53:46;;;;;;;112.40;48.92;;;;;;;-7.15;88.07;102094.17;1474447;88;21503;-79
2024/01/10 07:56:14;;;;;;;97.22;45.17;;;;;;;-7.06;86.97;102098.48;1471774;88;21399;-79
2024/01/10 07:58:41;;;;;;;101.58;45.08;;;;;;;-6.95;86.53;102108.39;1467846;88;21509;-78
2024/01/10 08:01:10;;;;;;;137.57;58.85;;;;;;;-6.89;84.79;102116.12;1483921;87;21366;-78
2024/01/10 08:03:38;;;;;;;241.12;99.40;;;;;;;-6.84;84.42;102109.28;1473433;87;21363;-79
2024/01/10 08:06:06;;;;;;;150.68;66.20;;;;;;;-6.78;83.52;102112.73;1462237;88;21318;-79
2024/01/10 08:08:33;;;;;;;95.65;43.55;;;;;;;-6.73;83.49;102120.02;1471263;88;21491;-78
2024/01/10 08:11:00;;;;;;;102.78;43.80;;;;;;;-6.73;82.06;102119.62;1470423;88;21369;-78
2024/01/10 08:13:27;;;;;;;92.15;41.85;;;;;;;-6.73;82.69;102122.20;1476388;87;22435;-78
2024/01/10 08:15:55;;;;;;;137.12;60.30;;;;;;;-6.65;82.87;102120.91;1471175;87;21502;-79
2024/01/10 08:18:24;;;;;;;102.82;45.70;;;;;;;-6.58;81.39;102118.78;1469035;87;21370;-79
2024/01/10 08:20:51;;;;;;;111.22;48.48;;;;;;;-6.50;81.17;102109.36;1454577;88;21317;-79
2024/01/10 08:23:20;;;;;;;96.82;41.25;;;;;;;-6.40;80.88;102111.06;1439620;88;22328;-79
2024/01/10 08:25:47;;;;;;;78.42;34.10;;;;;;;-6.27;81.03;102125.23;1457238;88;21361;-79
2024/01/10 08:28:15;;;;;;;132.20;59.70;;;;;;;-6.15;80.85;102122.25;1443481;88;21391;-79
2024/01/10 08:30:42;;;;;;;128.42;54.15;;;;;;;-6.04;79.23;102123.55;1468932;88;22343;-79
2024/01/10 08:33:10;;;;;;;138.97;57.05;;;;;;;-5.94;77.80;102130.84;1465134;88;21522;-79
2024/01/10 08:35:38;;;;;;;85.17;40.95;;;;;;;-5.79;78.67;102132.06;1472663;87;22262;-79
2024/01/10 08:38:07;;;;;;;54.53;25.17;;;;;;;-5.61;78.36;102137.66;1467771;88;21460;-79
2024/01/10 08:40:34;;;;;;;66.17;26.93;;;;;;;-5.42;77.96;102137.59;1437902;88;21368;-79
2024/01/10 08:43:02;;;;;;;61.02;27.25;;;;;;;-5.24;78.38;102136.23;1468756;88;21280;-78
2024/01/10 08:45:29;;;;;;;62.93;29.07;;;;;;;-5.07;77.34;102132.30;1482471;88;21869;-79
2024/01/10 08:47:57;;;;;;;52.67;24.10;;;;;;;-4.95;74.77;102140.42;1455818;88;21434;-79
2024/01/10 08:50:25;;;;;;;67.92;27.20;;;;;;;-4.93;73.62;102138.27;1469473;88;21389;-79
2024/01/10 08:52:52;;;;;;;47.20;22.73;;;;;;;-4.88;71.89;102133.09;1475324;88;22321;-79
2024/01/10 08:55:19;;;;;;;54.38;25.95;;;;;;;-4.79;73.44;102131.30;1474349;88;21390;-79
2024/01/10 08:57:46;;;;;;;56.55;25.17;;;;;;;-4.68;72.72;102132.98;1467073;88;22418;-79
2024/01/10 09:00:16;;;;;;;52.08;24.45;;;;;;;-4.50;74.30;102135.45;1476495;88;21397;-75
2024/01/10 09:02:43;;;;;;;60.35;25.85;;;;;;;-4.32;74.26;102139.63;1469718;88;21626;-76
2024/01/10 09:05:10;;;;;;;70.15;29.27;;;;;;;-4.27;72.72;102140.45;1478542;88;22352;-75
2024/01/10 09:07:37;;;;;;;58.30;25.48;;;;;;;-4.14;72.84;102136.92;1471625;88;21376;-78
2024/01/10 09:10:07;;;;;;;57.25;25.30;;;;;;;-3.93;73.66;102137.17;1464272;88;21279;-79
2024/01/10 09:12:35;;;;;;;78.95;31.15;;;;;;;-3.71;74.39;102133.95;1460489;88;21397;-79
2024/01/10 09:15:03;;;;;;;58.13;25.52;;;;;;;-3.57;71.66;102130.36;1473655;88;21353;-79
2024/01/10 09:17:30;;;;;;;61.35;25.70;;;;;;;-3.56;68.35;102130.36;1478594;88;22403;-79
2024/01/10 09:19:57;;;;;;;62.27;27.52;;;;;;;-3.64;65.19;102131.72;1474869;88;21368;-79
2024/01/10 09:22:24;;;;;;;56.75;27.82;;;;;;;-3.66;67.30;102123.10;1470087;88;22550;-79
2024/01/10 09:24:52;;;;;;;52.10;26.48;;;;;;;-3.60;68.34;102126.51;1482047;88;21434;-80
2024/01/10 09:27:19;;;;;;;59.08;28.62;;;;;;;-3.53;66.67;102126.88;1472048;88;21338;-80
2024/01/10 09:29:46;;;;;;;59.93;28.45;;;;;;;-3.44;68.04;102121.16;1472103;88;21413;-80
2024/01/10 09:32:13;;;;;;;58.60;28.73;;;;;;;-3.29;69.29;102120.12;1471410;88;21449;-80
2024/01/10 09:34:40;;;;;;;52.45;28.15;;;;;;;-3.25;66.84;102124.41;1465133;88;22506;-80
2024/01/10 09:37:08;;;;;;;59.35;29.05;;;;;;;-3.26;67.05;102122.67;1474617;88;21456;-80
2024/01/10 09:39:35;;;;;;;67.92;32.03;;;;;;;-3.11;68.82;102122.07;1476720;88;21471;-79
2024/01/10 09:42:03;;;;;;;64.42;33.55;;;;;;;-2.99;67.58;102118.05;1467571;88;21929;-80
2024/01/10 09:44:31;;;;;;;70.08;33.23;;;;;;;-3.14;65.84;102119.08;1463275;88;21410;-80
2024/01/10 09:46:58;;;;;;;68.00;35.55;;;;;;;-3.02;64.95;102115.47;1476860;88;22352;-80
2024/01/10 09:49:26;;;;;;;71.17;36.50;;;;;;;-2.86;63.51;102109.66;1471604;88;21456;-80
2024/01/10 09:52:01;;;;;;;81.67;38.37;;;;;;;-2.25;63.50;102109.19;1460524;88;21676;-80
2024/01/10 09:54:31;;;;;;;64.50;34.27;;;;;;;-1.26;64.95;102097.46;1473246;89;21657;-80
2024/01/10 09:56:58;;;;;;;64.77;35.77;;;;;;;-0.28;63.64;102103.08;1464639;88;21664;-80
2024/01/10 09:59:26;;;;;;;67.30;37.43;;;;;;;0.54;61.43;102093.55;1470353;88;22458;-80
2024/01/10 10:01:53;;;;;;;64.97;35.20;;;;;;;0.86;56.84;102093.96;1464156;88;21913;-81
2024/01/10 10:04:20;;;;;;;56.13;30.63;;;;;;;1.46;57.56;102091.27;1477567;88;22072;-78
2024/01/10 10:06:47;;;;;;;67.33;34.33;;;;;;;1.63;51.55;102086.38;1476123;88;21523;-79
2024/01/10 10:09:16;;;;;;;64.97;35.43;;;;;;;2.01;53.94;102082.51;1457831;88;21419;-78
2024/01/10 10:11:43;;;;;;;54.60;31.77;;;;;;;1.86;49.82;102086.92;1472062;88;21390;-79
2024/01/10 10:14:16;;;;;;;67.77;33.97;;;;;;;1.98;51.59;102086.96;1450070;89;21346;-78
2024/01/10 10:16:43;;;;;;;58.83;33.17;;;;;;;2.15;53.03;102080.70;1469408;88;22446;-79
2024/01/10 10:19:11;;;;;;;67.93;32.80;;;;;;;2.42;49.95;102074.13;1466857;88;21472;-78
2024/01/10 10:21:39;;;;;;;55.00;33.23;;;;;;;2.79;53.58;102070.15;1464496;88;21442;-78
2024/01/10 10:24:08;;;;;;;55.00;32.03;;;;;;;2.80;51.49;102078.41;1474487;88;21310;-77
2024/01/10 10:26:36;;;;;;;52.90;31.17;;;;;;;3.23;51.92;102075.47;1472467;88;21515;-78
2024/01/10 10:29:03;;;;;;;57.83;30.60;;;;;;;3.24;46.90;102075.39;1467276;88;21412;-78
2024/01/10 10:31:32;;;;;;;50.00;28.13;;;;;;;2.98;46.49;102076.40;1455226;89;21346;-78
2024/01/10 10:34:02;;;;;;;59.33;35.63;;;;;;;2.56;47.46;102073.18;1470925;88;21384;-78
2024/01/10 10:36:33;;;;;;;51.88;29.98;;;;;;;2.81;49.70;102074.41;1465920;88;21567;-78
2024/01/10 10:39:03;;;;;;;60.38;35.52;;;;;;;3.15;51.13;102073.98;1468363;88;21360;-78
2024/01/10 10:41:32;;;;;;;69.80;36.55;;;;;;;2.96;49.43;102072.98;1458154;88;22543;-78
2024/01/10 10:44:00;;;;;;;67.70;42.00;;;;;;;2.62;49.09;102069.03;1461754;88;21428;-78
2024/01/10 10:46:28;;;;;;;55.03;31.03;;;;;;;3.00;49.99;102064.58;1466791;88;21339;-78
2024/01/10 10:49:00;;;;;;;63.57;35.90;;;;;;;2.67;45.19;102061.84;1462044;88;21420;-77
2024/01/10 10:51:34;;;;;;;59.60;34.93;;;;;;;2.69;45.91;102063.11;1473876;88;21747;-78
2024/01/10 10:54:04;;;;;;;63.43;35.37;;;;;;;2.83;48.63;102058.69;1475091;88;21457;-78
2024/01/10 10:56:37;;;;;;;63.00;32.60;;;;;;;3.01;47.55;102059.73;1466575;89;22351;-78
2024/01/10 10:59:05;;;;;;;70.93;35.50;;;;;;;3.01;48.70;102055.35;1475846;88;21546;-77
2024/01/10 11:01:34;;;;;;;52.00;29.83;;;;;;;3.26;47.93;102051.33;1447533;89;21432;-78
2024/01/10 11:04:01;;;;;;;60.63;33.57;;;;;;;2.86;44.31;102055.95;1472526;88;21369;-78
2024/01/10 11:06:29;;;;;;;66.47;33.30;;;;;;;2.36;45.92;102045.16;1450982;89;21398;-78
2024/01/10 11:09:02;;;;;;;53.80;30.83;;;;;;;2.74;48.34;102041.58;1480680;88;21316;-78
2024/01/10 11:12:07;;;;;;;49.87;30.13;;;;;;;2.88;47.29;102041.06;1465914;88;22372;-76
2024/01/10 11:15:14;;;;;;;53.40;30.57;;;;;;;2.85;45.45;102037.22;1435191;91;21400;-80
2024/01/10 11:18:11;;;;;;;53.03;32.53;;;;;;;2.87;48.46;102030.18;1410836;92;21449;-79